New Richmond, Wisconsin
Current Conditions -  °F | °C
As of 11:15 PM on Tuesday 25 Nov 2014 (Local Time) from KRNH Reporting Station
Overcast Overcast  
Wind Chill: -5°   Ceiling: 6500
Heat Index: -5°   Visibility: 10mi
Dew Point: -8°   Wind: 3mph
Humidity: 77%   Direction: 110°ESE
Pressure: 30.05"   Gusts: NA
Location:  45.12°N, 92.54°W
Report Text: KRNH 260515Z AUTO 11003KT 10SM SCT055 OVC065 M05/M08 A3005 RMK AO2 T10461080
Loading
Personal Weather Stations






























Interactive Weather Map New forecast layout! Learn more

10-Day Weather Forecast

Advertisements
Track Severe Weather on mobile